sensor_id;sensor_type;location;lat;lon;timestamp;P1;durP1;ratioP1;P2;durP2;ratioP2
74543;SDS011;63016;55.030;38.710;2023-10-09T00:01:06;0.15;;;0.13;;
74543;SDS011;63016;55.030;38.710;2023-10-09T00:03:42;0.10;;;0.10;;
74543;SDS011;63016;55.030;38.710;2023-10-09T00:06:09;0.50;;;0.10;;
74543;SDS011;63016;55.030;38.710;2023-10-09T00:08:38;0.15;;;0.15;;
74543;SDS011;63016;55.030;38.710;2023-10-09T00:11:04;0.20;;;0.20;;
74543;SDS011;63016;55.030;38.710;2023-10-09T00:13:42;0.10;;;0.10;;
74543;SDS011;63016;55.030;38.710;2023-10-09T00:16:15;0.20;;;0.20;;
74543;SDS011;63016;55.030;38.710;2023-10-09T00:18:42;0.20;;;0.20;;
74543;SDS011;63016;55.030;38.710;2023-10-09T00:21:15;0.20;;;0.20;;
74543;SDS011;63016;55.030;38.710;2023-10-09T00:23:47;0.22;;;0.20;;
74543;SDS011;63016;55.030;38.710;2023-10-09T00:26:24;0.15;;;0.15;;
74543;SDS011;63016;55.030;38.710;2023-10-09T00:28:50;0.20;;;0.20;;
74543;SDS011;63016;55.030;38.710;2023-10-09T00:31:17;0.25;;;0.15;;
74543;SDS011;63016;55.030;38.710;2023-10-09T00:33:56;0.20;;;0.20;;
74543;SDS011;63016;55.030;38.710;2023-10-09T00:36:21;0.20;;;0.20;;
74543;SDS011;63016;55.030;38.710;2023-10-09T00:38:53;0.20;;;0.20;;
74543;SDS011;63016;55.030;38.710;2023-10-09T00:41:19;0.20;;;0.20;;
74543;SDS011;63016;55.030;38.710;2023-10-09T00:43:47;0.08;;;0.08;;
74543;SDS011;63016;55.030;38.710;2023-10-09T00:46:15;0.30;;;0.10;;
74543;SDS011;63016;55.030;38.710;2023-10-09T00:48:46;0.13;;;0.10;;
74543;SDS011;63016;55.030;38.710;2023-10-09T00:51:13;0.50;;;0.20;;
74543;SDS011;63016;55.030;38.710;2023-10-09T00:53:46;0.40;;;0.20;;
74543;SDS011;63016;55.030;38.710;2023-10-09T00:56:22;0.10;;;0.10;;
74543;SDS011;63016;55.030;38.710;2023-10-09T00:58:51;0.17;;;0.17;;
74543;SDS011;63016;55.030;38.710;2023-10-09T01:01:21;0.20;;;0.13;;
74543;SDS011;63016;55.030;38.710;2023-10-09T01:03:52;0.57;;;0.30;;
74543;SDS011;63016;55.030;38.710;2023-10-09T01:06:17;0.13;;;0.13;;
74543;SDS011;63016;55.030;38.710;2023-10-09T01:08:46;0.10;;;0.10;;
74543;SDS011;63016;55.030;38.710;2023-10-09T01:11:30;0.13;;;0.10;;
74543;SDS011;63016;55.030;38.710;2023-10-09T01:13:56;0.10;;;0.10;;
74543;SDS011;63016;55.030;38.710;2023-10-09T01:16:34;0.10;;;0.10;;
74543;SDS011;63016;55.030;38.710;2023-10-09T01:18:59;0.10;;;0.10;;
74543;SDS011;63016;55.030;38.710;2023-10-09T01:21:25;0.28;;;0.20;;
74543;SDS011;63016;55.030;38.710;2023-10-09T01:23:52;0.20;;;0.20;;
74543;SDS011;63016;55.030;38.710;2023-10-09T01:26:30;0.10;;;0.10;;
74543;SDS011;63016;55.030;38.710;2023-10-09T01:31:26;0.10;;;0.10;;
74543;SDS011;63016;55.030;38.710;2023-10-09T01:33:52;0.10;;;0.10;;
74543;SDS011;63016;55.030;38.710;2023-10-09T01:36:25;0.15;;;0.13;;
74543;SDS011;63016;55.030;38.710;2023-10-09T01:38:59;0.22;;;0.20;;
74543;SDS011;63016;55.030;38.710;2023-10-09T01:41:48;0.10;;;0.10;;
74543;SDS011;63016;55.030;38.710;2023-10-09T01:44:24;0.20;;;0.20;;
74543;SDS011;63016;55.030;38.710;2023-10-09T01:47:00;0.20;;;0.20;;
74543;SDS011;63016;55.030;38.710;2023-10-09T01:49:32;0.20;;;0.20;;
74543;SDS011;63016;55.030;38.710;2023-10-09T01:52:03;0.90;;;0.20;;
74543;SDS011;63016;55.030;38.710;2023-10-09T01:54:41;0.45;;;0.20;;
74543;SDS011;63016;55.030;38.710;2023-10-09T01:57:12;0.20;;;0.20;;
74543;SDS011;63016;55.030;38.710;2023-10-09T01:59:39;0.20;;;0.10;;
74543;SDS011;63016;55.030;38.710;2023-10-09T02:02:09;0.20;;;0.20;;
74543;SDS011;63016;55.030;38.710;2023-10-09T02:04:39;0.30;;;0.20;;
74543;SDS011;63016;55.030;38.710;2023-10-09T02:07:06;0.10;;;0.10;;
74543;SDS011;63016;55.030;38.710;2023-10-09T02:09:33;0.20;;;0.20;;
74543;SDS011;63016;55.030;38.710;2023-10-09T02:12:00;0.20;;;0.20;;
74543;SDS011;63016;55.030;38.710;2023-10-09T02:14:26;0.13;;;0.13;;
74543;SDS011;63016;55.030;38.710;2023-10-09T02:16:53;0.55;;;0.20;;
74543;SDS011;63016;55.030;38.710;2023-10-09T02:19:30;0.20;;;0.20;;
74543;SDS011;63016;55.030;38.710;2023-10-09T02:22:05;0.70;;;0.15;;
74543;SDS011;63016;55.030;38.710;2023-10-09T02:27:22;0.20;;;0.20;;
74543;SDS011;63016;55.030;38.710;2023-10-09T02:30:07;1.05;;;0.20;;
74543;SDS011;63016;55.030;38.710;2023-10-09T02:32:44;0.10;;;0.10;;
74543;SDS011;63016;55.030;38.710;2023-10-09T02:35:17;0.40;;;0.20;;
74543;SDS011;63016;55.030;38.710;2023-10-09T04:52:59;1.40;;;0.80;;
74543;SDS011;63016;55.030;38.710;2023-10-09T04:55:42;2.65;;;0.70;;
74543;SDS011;63016;55.030;38.710;2023-10-09T04:58:20;1.00;;;0.73;;
74543;SDS011;63016;55.030;38.710;2023-10-09T05:00:51;0.85;;;0.65;;
74543;SDS011;63016;55.030;38.710;2023-10-09T05:03:22;1.35;;;0.70;;
74543;SDS011;63016;55.030;38.710;2023-10-09T05:06:08;0.60;;;0.60;;
74543;SDS011;63016;55.030;38.710;2023-10-09T05:08:47;0.77;;;0.50;;
74543;SDS011;63016;55.030;38.710;2023-10-09T05:11:13;0.47;;;0.40;;
74543;SDS011;63016;55.030;38.710;2023-10-09T05:13:58;0.95;;;0.60;;
74543;SDS011;63016;55.030;38.710;2023-10-09T05:16:36;0.93;;;0.75;;
74543;SDS011;63016;55.030;38.710;2023-10-09T05:19:09;0.65;;;0.52;;
74543;SDS011;63016;55.030;38.710;2023-10-09T05:21:54;0.90;;;0.52;;
74543;SDS011;63016;55.030;38.710;2023-10-09T05:24:23;0.52;;;0.47;;
74543;SDS011;63016;55.030;38.710;2023-10-09T05:26:49;0.63;;;0.52;;
74543;SDS011;63016;55.030;38.710;2023-10-09T05:29:15;1.40;;;0.50;;
74543;SDS011;63016;55.030;38.710;2023-10-09T05:31:58;0.80;;;0.60;;
74543;SDS011;63016;55.030;38.710;2023-10-09T05:34:31;0.80;;;0.55;;
74543;SDS011;63016;55.030;38.710;2023-10-09T05:37:00;0.47;;;0.40;;
74543;SDS011;63016;55.030;38.710;2023-10-09T05:39:48;1.33;;;0.70;;
74543;SDS011;63016;55.030;38.710;2023-10-09T05:42:29;0.77;;;0.50;;
74543;SDS011;63016;55.030;38.710;2023-10-09T05:45:02;0.63;;;0.50;;
74543;SDS011;63016;55.030;38.710;2023-10-09T05:47:49;0.70;;;0.60;;
74543;SDS011;63016;55.030;38.710;2023-10-09T05:50:22;0.95;;;0.50;;
74543;SDS011;63016;55.030;38.710;2023-10-09T05:52:52;0.40;;;0.40;;
74543;SDS011;63016;55.030;38.710;2023-10-09T05:55:19;0.40;;;0.40;;
74543;SDS011;63016;55.030;38.710;2023-10-09T05:57:45;1.50;;;0.38;;
74543;SDS011;63016;55.030;38.710;2023-10-09T06:00:29;0.32;;;0.32;;
74543;SDS011;63016;55.030;38.710;2023-10-09T06:03:14;0.40;;;0.40;;
74543;SDS011;63016;55.030;38.710;2023-10-09T06:05:46;1.00;;;0.40;;
74543;SDS011;63016;55.030;38.710;2023-10-09T06:08:24;0.70;;;0.40;;
74543;SDS011;63016;55.030;38.710;2023-10-09T06:11:13;1.05;;;0.50;;
74543;SDS011;63016;55.030;38.710;2023-10-09T06:13:58;1.48;;;0.40;;
74543;SDS011;63016;55.030;38.710;2023-10-09T06:16:34;0.93;;;0.47;;
74543;SDS011;63016;55.030;38.710;2023-10-09T06:19:04;2.42;;;0.40;;
74543;SDS011;63016;55.030;38.710;2023-10-09T06:21:35;0.80;;;0.50;;
74543;SDS011;63016;55.030;38.710;2023-10-09T06:24:08;0.75;;;0.40;;
74543;SDS011;63016;55.030;38.710;2023-10-09T06:26:39;0.30;;;0.30;;
74543;SDS011;63016;55.030;38.710;2023-10-09T06:29:16;0.60;;;0.50;;
74543;SDS011;63016;55.030;38.710;2023-10-09T06:34:27;0.20;;;0.20;;
74543;SDS011;63016;55.030;38.710;2023-10-09T06:37:00;0.28;;;0.28;;
74543;SDS011;63016;55.030;38.710;2023-10-09T06:39:45;0.30;;;0.30;;
74543;SDS011;63016;55.030;38.710;2023-10-09T06:42:23;0.30;;;0.30;;
74543;SDS011;63016;55.030;38.710;2023-10-09T06:45:04;0.77;;;0.32;;
74543;SDS011;63016;55.030;38.710;2023-10-09T06:47:47;0.60;;;0.40;;
74543;SDS011;63016;55.030;38.710;2023-10-09T06:50:34;1.48;;;0.73;;
74543;SDS011;63016;55.030;38.710;2023-10-09T06:53:18;0.52;;;0.38;;
74543;SDS011;63016;55.030;38.710;2023-10-09T06:55:44;0.30;;;0.30;;
74543;SDS011;63016;55.030;38.710;2023-10-09T06:58:39;0.30;;;0.30;;
74543;SDS011;63016;55.030;38.710;2023-10-09T07:01:08;0.43;;;0.32;;
74543;SDS011;63016;55.030;38.710;2023-10-09T07:03:52;0.45;;;0.40;;
74543;SDS011;63016;55.030;38.710;2023-10-09T07:06:21;0.50;;;0.40;;
74543;SDS011;63016;55.030;38.710;2023-10-09T07:09:02;0.70;;;0.40;;
74543;SDS011;63016;55.030;38.710;2023-10-09T07:11:33;0.50;;;0.40;;
74543;SDS011;63016;55.030;38.710;2023-10-09T07:14:06;1.20;;;0.50;;
74543;SDS011;63016;55.030;38.710;2023-10-09T07:16:32;0.65;;;0.40;;
74543;SDS011;63016;55.030;38.710;2023-10-09T07:19:04;0.22;;;0.22;;
74543;SDS011;63016;55.030;38.710;2023-10-09T07:21:49;0.40;;;0.40;;
74543;SDS011;63016;55.030;38.710;2023-10-09T07:24:19;0.50;;;0.30;;
74543;SDS011;63016;55.030;38.710;2023-10-09T07:27:03;1.33;;;0.40;;
74543;SDS011;63016;55.030;38.710;2023-10-09T07:29:34;0.38;;;0.38;;
74543;SDS011;63016;55.030;38.710;2023-10-09T07:32:13;0.98;;;0.60;;
74543;SDS011;63016;55.030;38.710;2023-10-09T07:34:45;0.60;;;0.50;;
74543;SDS011;63016;55.030;38.710;2023-10-09T07:37:25;0.80;;;0.60;;
74543;SDS011;63016;55.030;38.710;2023-10-09T07:40:03;1.02;;;0.60;;
74543;SDS011;63016;55.030;38.710;2023-10-09T07:42:32;1.00;;;0.70;;
74543;SDS011;63016;55.030;38.710;2023-10-09T07:45:19;0.75;;;0.60;;
74543;SDS011;63016;55.030;38.710;2023-10-09T07:47:47;1.58;;;0.70;;
74543;SDS011;63016;55.030;38.710;2023-10-09T07:50:28;0.65;;;0.65;;
74543;SDS011;63016;55.030;38.710;2023-10-09T07:53:12;1.15;;;0.90;;
74543;SDS011;63016;55.030;38.710;2023-10-09T07:55:43;0.90;;;0.80;;
74543;SDS011;63016;55.030;38.710;2023-10-09T07:58:19;1.85;;;0.80;;
74543;SDS011;63016;55.030;38.710;2023-10-09T08:00:53;2.00;;;0.60;;
74543;SDS011;63016;55.030;38.710;2023-10-09T08:03:23;1.63;;;0.70;;
74543;SDS011;63016;55.030;38.710;2023-10-09T08:05:51;0.85;;;0.70;;
74543;SDS011;63016;55.030;38.710;2023-10-09T08:08:19;0.70;;;0.70;;
74543;SDS011;63016;55.030;38.710;2023-10-09T08:10:59;0.98;;;0.65;;
74543;SDS011;63016;55.030;38.710;2023-10-09T08:13:43;0.90;;;0.80;;
74543;SDS011;63016;55.030;38.710;2023-10-09T08:16:14;1.02;;;0.70;;
74543;SDS011;63016;55.030;38.710;2023-10-09T08:21:16;0.70;;;0.55;;
74543;SDS011;63016;55.030;38.710;2023-10-09T08:23:42;0.68;;;0.50;;
74543;SDS011;63016;55.030;38.710;2023-10-09T08:26:13;2.88;;;0.60;;
74543;SDS011;63016;55.030;38.710;2023-10-09T08:28:54;0.35;;;0.35;;
74543;SDS011;63016;55.030;38.710;2023-10-09T08:31:41;0.60;;;0.50;;
74543;SDS011;63016;55.030;38.710;2023-10-09T08:34:22;0.60;;;0.50;;
74543;SDS011;63016;55.030;38.710;2023-10-09T08:36:51;0.85;;;0.40;;
74543;SDS011;63016;55.030;38.710;2023-10-09T08:39:21;2.28;;;0.50;;
74543;SDS011;63016;55.030;38.710;2023-10-09T08:41:53;2.00;;;0.50;;
74543;SDS011;63016;55.030;38.710;2023-10-09T08:44:23;0.40;;;0.40;;
74543;SDS011;63016;55.030;38.710;2023-10-09T08:46:55;1.27;;;0.30;;
74543;SDS011;63016;55.030;38.710;2023-10-09T08:49:22;1.23;;;0.50;;
74543;SDS011;63016;55.030;38.710;2023-10-09T08:51:51;0.32;;;0.32;;
74543;SDS011;63016;55.030;38.710;2023-10-09T08:54:20;0.40;;;0.30;;
74543;SDS011;63016;55.030;38.710;2023-10-09T08:56:47;0.88;;;0.50;;
74543;SDS011;63016;55.030;38.710;2023-10-09T08:59:16;0.40;;;0.40;;
74543;SDS011;63016;55.030;38.710;2023-10-09T09:01:44;0.40;;;0.30;;
74543;SDS011;63016;55.030;38.710;2023-10-09T09:07:29;9.75;;;1.13;;
74543;SDS011;63016;55.030;38.710;2023-10-09T09:10:07;3.75;;;0.60;;
74543;SDS011;63016;55.030;38.710;2023-10-09T09:12:47;10.68;;;0.80;;
74543;SDS011;63016;55.030;38.710;2023-10-09T09:15:26;4.50;;;0.77;;
74543;SDS011;63016;55.030;38.710;2023-10-09T09:18:14;6.25;;;0.43;;
74543;SDS011;63016;55.030;38.710;2023-10-09T09:20:43;4.53;;;0.50;;
74543;SDS011;63016;55.030;38.710;2023-10-09T09:23:12;1.05;;;0.40;;
74543;SDS011;63016;55.030;38.710;2023-10-09T09:25:45;2.00;;;0.52;;
74543;SDS011;63016;55.030;38.710;2023-10-09T09:28:23;0.80;;;0.40;;
74543;SDS011;63016;55.030;38.710;2023-10-09T09:30:54;0.68;;;0.40;;
74543;SDS011;63016;55.030;38.710;2023-10-09T09:33:34;1.77;;;0.40;;
74543;SDS011;63016;55.030;38.710;2023-10-09T09:36:07;1.95;;;0.40;;
74543;SDS011;63016;55.030;38.710;2023-10-09T09:38:36;7.03;;;0.50;;
74543;SDS011;63016;55.030;38.710;2023-10-09T09:41:18;1.40;;;0.57;;
74543;SDS011;63016;55.030;38.710;2023-10-09T09:43:57;0.55;;;0.40;;
74543;SDS011;63016;55.030;38.710;2023-10-09T09:46:27;0.30;;;0.30;;
74543;SDS011;63016;55.030;38.710;2023-10-09T09:49:06;3.13;;;0.30;;
74543;SDS011;63016;55.030;38.710;2023-10-09T09:51:44;0.60;;;0.30;;
74543;SDS011;63016;55.030;38.710;2023-10-09T09:54:18;3.33;;;0.57;;
74543;SDS011;63016;55.030;38.710;2023-10-09T09:56:47;4.80;;;1.08;;
74543;SDS011;63016;55.030;38.710;2023-10-09T09:59:20;2.50;;;0.50;;
74543;SDS011;63016;55.030;38.710;2023-10-09T10:01:58;2.60;;;0.75;;
74543;SDS011;63016;55.030;38.710;2023-10-09T10:04:31;4.47;;;0.70;;
74543;SDS011;63016;55.030;38.710;2023-10-09T10:07:06;2.63;;;0.47;;
74543;SDS011;63016;55.030;38.710;2023-10-09T10:09:38;1.30;;;0.57;;
74543;SDS011;63016;55.030;38.710;2023-10-09T10:12:09;1.85;;;0.50;;
74543;SDS011;63016;55.030;38.710;2023-10-09T10:17:32;0.45;;;0.40;;
74543;SDS011;63016;55.030;38.710;2023-10-09T10:21:37;1.35;;;0.40;;
74543;SDS011;63016;55.030;38.710;2023-10-09T10:24:01;1.48;;;0.30;;
74543;SDS011;63016;55.030;38.710;2023-10-09T10:26:36;3.30;;;0.82;;
74543;SDS011;63016;55.030;38.710;2023-10-09T10:32:00;5.65;;;0.80;;
74543;SDS011;63016;55.030;38.710;2023-10-09T10:34:54;2.00;;;0.40;;
74543;SDS011;63016;55.030;38.710;2023-10-09T10:40:24;6.13;;;0.73;;
74543;SDS011;63016;55.030;38.710;2023-10-09T10:43:17;6.95;;;1.10;;
74543;SDS011;63016;55.030;38.710;2023-10-09T10:46:22;4.68;;;0.60;;
74543;SDS011;63016;55.030;38.710;2023-10-09T10:48:51;1.80;;;0.40;;
74543;SDS011;63016;55.030;38.710;2023-10-09T10:51:41;0.82;;;0.40;;
74543;SDS011;63016;55.030;38.710;2023-10-09T10:54:23;0.50;;;0.40;;
74543;SDS011;63016;55.030;38.710;2023-10-09T10:56:59;5.20;;;0.57;;
74543;SDS011;63016;55.030;38.710;2023-10-09T10:59:32;8.68;;;0.40;;
74543;SDS011;63016;55.030;38.710;2023-10-09T11:02:12;3.38;;;0.40;;
74543;SDS011;63016;55.030;38.710;2023-10-09T11:04:50;1.17;;;0.30;;
74543;SDS011;63016;55.030;38.710;2023-10-09T11:07:38;1.02;;;0.43;;
74543;SDS011;63016;55.030;38.710;2023-10-09T11:10:06;0.30;;;0.30;;
74543;SDS011;63016;55.030;38.710;2023-10-09T11:12:42;7.72;;;0.98;;
74543;SDS011;63016;55.030;38.710;2023-10-09T11:15:32;0.63;;;0.20;;
74543;SDS011;63016;55.030;38.710;2023-10-09T11:18:13;0.73;;;0.30;;
74543;SDS011;63016;55.030;38.710;2023-10-09T11:20:50;0.68;;;0.50;;
74543;SDS011;63016;55.030;38.710;2023-10-09T11:23:29;0.52;;;0.30;;
74543;SDS011;63016;55.030;38.710;2023-10-09T11:25:59;0.52;;;0.28;;
74543;SDS011;63016;55.030;38.710;2023-10-09T11:34:27;0.57;;;0.30;;
74543;SDS011;63016;55.030;38.710;2023-10-09T11:37:03;0.20;;;0.20;;
74543;SDS011;63016;55.030;38.710;2023-10-09T11:39:41;2.28;;;0.32;;
74543;SDS011;63016;55.030;38.710;2023-10-09T11:42:19;0.20;;;0.20;;
74543;SDS011;63016;55.030;38.710;2023-10-09T11:45:18;3.60;;;0.40;;
74543;SDS011;63016;55.030;38.710;2023-10-09T11:47:54;0.20;;;0.20;;
74543;SDS011;63016;55.030;38.710;2023-10-09T11:53:39;1.35;;;0.20;;
74543;SDS011;63016;55.030;38.710;2023-10-09T11:56:08;1.20;;;0.30;;
74543;SDS011;63016;55.030;38.710;2023-10-09T11:58:50;0.70;;;0.22;;
74543;SDS011;63016;55.030;38.710;2023-10-09T12:01:25;0.82;;;0.20;;
74543;SDS011;63016;55.030;38.710;2023-10-09T12:04:09;0.55;;;0.20;;
74543;SDS011;63016;55.030;38.710;2023-10-09T12:06:38;0.30;;;0.30;;
74543;SDS011;63016;55.030;38.710;2023-10-09T12:09:07;1.25;;;0.30;;
74543;SDS011;63016;55.030;38.710;2023-10-09T12:11:44;0.95;;;0.28;;
74543;SDS011;63016;55.030;38.710;2023-10-09T12:14:26;0.40;;;0.30;;
74543;SDS011;63016;55.030;38.710;2023-10-09T12:16:59;0.60;;;0.30;;
74543;SDS011;63016;55.030;38.710;2023-10-09T12:19:38;1.95;;;0.28;;
74543;SDS011;63016;55.030;38.710;2023-10-09T12:22:07;0.40;;;0.20;;
74543;SDS011;63016;55.030;38.710;2023-10-09T12:24:41;0.40;;;0.22;;
74543;SDS011;63016;55.030;38.710;2023-10-09T12:27:10;0.40;;;0.20;;
74543;SDS011;63016;55.030;38.710;2023-10-09T12:29:37;0.30;;;0.30;;
74543;SDS011;63016;55.030;38.710;2023-10-09T12:32:10;1.17;;;0.20;;
74543;SDS011;63016;55.030;38.710;2023-10-09T12:34:39;0.60;;;0.20;;
74543;SDS011;63016;55.030;38.710;2023-10-09T12:37:10;0.30;;;0.20;;
74543;SDS011;63016;55.030;38.710;2023-10-09T12:39:39;0.20;;;0.20;;
74543;SDS011;63016;55.030;38.710;2023-10-09T12:42:12;0.30;;;0.25;;
74543;SDS011;63016;55.030;38.710;2023-10-09T12:44:44;0.20;;;0.13;;
74543;SDS011;63016;55.030;38.710;2023-10-09T12:47:10;0.75;;;0.20;;
74543;SDS011;63016;55.030;38.710;2023-10-09T12:49:36;0.32;;;0.20;;
74543;SDS011;63016;55.030;38.710;2023-10-09T12:52:06;0.52;;;0.40;;
74543;SDS011;63016;55.030;38.710;2023-10-09T12:54:44;0.50;;;0.10;;
74543;SDS011;63016;55.030;38.710;2023-10-09T12:57:13;0.57;;;0.20;;
74543;SDS011;63016;55.030;38.710;2023-10-09T12:59:41;0.30;;;0.20;;
74543;SDS011;63016;55.030;38.710;2023-10-09T13:02:13;0.20;;;0.20;;
74543;SDS011;63016;55.030;38.710;2023-10-09T13:04:54;0.63;;;0.20;;
74543;SDS011;63016;55.030;38.710;2023-10-09T13:07:25;0.20;;;0.20;;
74543;SDS011;63016;55.030;38.710;2023-10-09T13:09:50;1.58;;;0.30;;
74543;SDS011;63016;55.030;38.710;2023-10-09T13:12:34;1.75;;;0.28;;
74543;SDS011;63016;55.030;38.710;2023-10-09T13:15:10;0.28;;;0.20;;
74543;SDS011;63016;55.030;38.710;2023-10-09T13:17:36;1.33;;;0.30;;
74543;SDS011;63016;55.030;38.710;2023-10-09T13:20:02;0.25;;;0.20;;
74543;SDS011;63016;55.030;38.710;2023-10-09T13:22:37;0.57;;;0.20;;
74543;SDS011;63016;55.030;38.710;2023-10-09T13:25:07;1.58;;;0.20;;
74543;SDS011;63016;55.030;38.710;2023-10-09T13:27:40;0.50;;;0.20;;
74543;SDS011;63016;55.030;38.710;2023-10-09T13:30:06;0.65;;;0.40;;
74543;SDS011;63016;55.030;38.710;2023-10-09T13:32:33;0.70;;;0.40;;
74543;SDS011;63016;55.030;38.710;2023-10-09T13:35:02;0.50;;;0.30;;
74543;SDS011;63016;55.030;38.710;2023-10-09T13:37:29;2.33;;;0.30;;
74543;SDS011;63016;55.030;38.710;2023-10-09T13:39:57;0.30;;;0.20;;
74543;SDS011;63016;55.030;38.710;2023-10-09T13:42:39;0.22;;;0.20;;
74543;SDS011;63016;55.030;38.710;2023-10-09T13:45:04;0.75;;;0.20;;
74543;SDS011;63016;55.030;38.710;2023-10-09T13:47:41;0.50;;;0.30;;
74543;SDS011;63016;55.030;38.710;2023-10-09T13:50:10;0.47;;;0.28;;
74543;SDS011;63016;55.030;38.710;2023-10-09T13:52:35;1.73;;;0.30;;
74543;SDS011;63016;55.030;38.710;2023-10-09T13:55:05;0.25;;;0.25;;
74543;SDS011;63016;55.030;38.710;2023-10-09T13:57:41;0.68;;;0.30;;
74543;SDS011;63016;55.030;38.710;2023-10-09T14:00:11;0.52;;;0.38;;
74543;SDS011;63016;55.030;38.710;2023-10-09T14:05:08;2.15;;;0.55;;
74543;SDS011;63016;55.030;38.710;2023-10-09T14:07:34;2.15;;;0.30;;
74543;SDS011;63016;55.030;38.710;2023-10-09T14:10:03;0.30;;;0.20;;
74543;SDS011;63016;55.030;38.710;2023-10-09T14:12:51;0.50;;;0.30;;
74543;SDS011;63016;55.030;38.710;2023-10-09T14:15:19;0.40;;;0.40;;
74543;SDS011;63016;55.030;38.710;2023-10-09T14:17:48;0.70;;;0.30;;
74543;SDS011;63016;55.030;38.710;2023-10-09T14:20:21;0.73;;;0.30;;
74543;SDS011;63016;55.030;38.710;2023-10-09T14:23:02;0.63;;;0.45;;
74543;SDS011;63016;55.030;38.710;2023-10-09T14:25:37;0.95;;;0.30;;
74543;SDS011;63016;55.030;38.710;2023-10-09T14:28:07;1.25;;;0.30;;
74543;SDS011;63016;55.030;38.710;2023-10-09T14:30:37;0.77;;;0.22;;
74543;SDS011;63016;55.030;38.710;2023-10-09T14:33:13;0.60;;;0.40;;
74543;SDS011;63016;55.030;38.710;2023-10-09T14:35:48;0.70;;;0.30;;
74543;SDS011;63016;55.030;38.710;2023-10-09T14:38:15;0.45;;;0.30;;
74543;SDS011;63016;55.030;38.710;2023-10-09T14:40:41;1.42;;;0.40;;
74543;SDS011;63016;55.030;38.710;2023-10-09T14:43:09;0.40;;;0.30;;
74543;SDS011;63016;55.030;38.710;2023-10-09T14:45:44;0.55;;;0.30;;
74543;SDS011;63016;55.030;38.710;2023-10-09T14:48:14;0.60;;;0.40;;
74543;SDS011;63016;55.030;38.710;2023-10-09T14:50:49;0.60;;;0.30;;
74543;SDS011;63016;55.030;38.710;2023-10-09T14:53:29;0.40;;;0.38;;
74543;SDS011;63016;55.030;38.710;2023-10-09T14:55:56;0.47;;;0.35;;
74543;SDS011;63016;55.030;38.710;2023-10-09T14:58:28;0.60;;;0.40;;
74543;SDS011;63016;55.030;38.710;2023-10-09T15:01:12;0.90;;;0.40;;
74543;SDS011;63016;55.030;38.710;2023-10-09T15:03:44;0.32;;;0.30;;
74543;SDS011;63016;55.030;38.710;2023-10-09T15:06:14;0.50;;;0.30;;
74543;SDS011;63016;55.030;38.710;2023-10-09T15:08:42;1.27;;;0.40;;
74543;SDS011;63016;55.030;38.710;2023-10-09T15:11:08;1.67;;;0.50;;
74543;SDS011;63016;55.030;38.710;2023-10-09T15:13:34;1.40;;;0.38;;
74543;SDS011;63016;55.030;38.710;2023-10-09T15:16:00;1.35;;;0.47;;
74543;SDS011;63016;55.030;38.710;2023-10-09T15:18:29;1.00;;;0.50;;
74543;SDS011;63016;55.030;38.710;2023-10-09T15:20:58;1.45;;;0.45;;
74543;SDS011;63016;55.030;38.710;2023-10-09T15:23:27;1.00;;;0.40;;
74543;SDS011;63016;55.030;38.710;2023-10-09T15:25:56;1.50;;;0.60;;
74543;SDS011;63016;55.030;38.710;2023-10-09T15:28:25;2.55;;;0.52;;
74543;SDS011;63016;55.030;38.710;2023-10-09T15:30:57;1.80;;;0.60;;
74543;SDS011;63016;55.030;38.710;2023-10-09T15:33:24;1.25;;;0.50;;
74543;SDS011;63016;55.030;38.710;2023-10-09T15:35:56;1.35;;;0.55;;
74543;SDS011;63016;55.030;38.710;2023-10-09T15:38:25;1.80;;;0.65;;
74543;SDS011;63016;55.030;38.710;2023-10-09T15:40:51;2.63;;;0.70;;
74543;SDS011;63016;55.030;38.710;2023-10-09T15:43:28;1.00;;;0.63;;
74543;SDS011;63016;55.030;38.710;2023-10-09T15:45:59;2.17;;;0.70;;
74543;SDS011;63016;55.030;38.710;2023-10-09T15:48:25;1.10;;;0.68;;
74543;SDS011;63016;55.030;38.710;2023-10-09T15:50:51;1.02;;;0.60;;
74543;SDS011;63016;55.030;38.710;2023-10-09T15:53:18;1.25;;;0.50;;
74543;SDS011;63016;55.030;38.710;2023-10-09T15:55:57;1.10;;;0.60;;
74543;SDS011;63016;55.030;38.710;2023-10-09T15:58:35;0.88;;;0.52;;
74543;SDS011;63016;55.030;38.710;2023-10-09T16:01:12;1.48;;;0.52;;
74543;SDS011;63016;55.030;38.710;2023-10-09T16:03:39;1.08;;;0.50;;
74543;SDS011;63016;55.030;38.710;2023-10-09T16:06:09;1.73;;;0.60;;
74543;SDS011;63016;55.030;38.710;2023-10-09T16:11:21;0.93;;;0.52;;
74543;SDS011;63016;55.030;38.710;2023-10-09T16:13:53;3.30;;;0.57;;
74543;SDS011;63016;55.030;38.710;2023-10-09T16:16:28;0.80;;;0.60;;
74543;SDS011;63016;55.030;38.710;2023-10-09T16:18:59;1.65;;;0.60;;
74543;SDS011;63016;55.030;38.710;2023-10-09T16:21:26;1.75;;;0.60;;
74543;SDS011;63016;55.030;38.710;2023-10-09T16:23:55;1.05;;;0.60;;
74543;SDS011;63016;55.030;38.710;2023-10-09T16:26:26;1.13;;;0.70;;
74543;SDS011;63016;55.030;38.710;2023-10-09T16:29:03;1.35;;;0.60;;
74543;SDS011;63016;55.030;38.710;2023-10-09T16:31:28;3.00;;;0.73;;
74543;SDS011;63016;55.030;38.710;2023-10-09T16:34:01;1.23;;;0.70;;
74543;SDS011;63016;55.030;38.710;2023-10-09T16:36:32;1.10;;;0.60;;
74543;SDS011;63016;55.030;38.710;2023-10-09T16:38:58;0.60;;;0.60;;
74543;SDS011;63016;55.030;38.710;2023-10-09T16:41:46;1.13;;;0.60;;
74543;SDS011;63016;55.030;38.710;2023-10-09T16:44:12;2.63;;;0.70;;
74543;SDS011;63016;55.030;38.710;2023-10-09T16:46:42;1.65;;;0.60;;
74543;SDS011;63016;55.030;38.710;2023-10-09T16:49:10;1.23;;;0.70;;
74543;SDS011;63016;55.030;38.710;2023-10-09T16:51:41;1.70;;;0.70;;
74543;SDS011;63016;55.030;38.710;2023-10-09T16:54:10;3.00;;;0.50;;
74543;SDS011;63016;55.030;38.710;2023-10-09T16:56:42;2.13;;;0.70;;
74543;SDS011;63016;55.030;38.710;2023-10-09T16:59:20;0.88;;;0.60;;
74543;SDS011;63016;55.030;38.710;2023-10-09T17:01:49;1.23;;;0.50;;
74543;SDS011;63016;55.030;38.710;2023-10-09T17:04:23;1.35;;;0.70;;
74543;SDS011;63016;55.030;38.710;2023-10-09T17:06:52;1.77;;;0.57;;
74543;SDS011;63016;55.030;38.710;2023-10-09T17:09:23;0.90;;;0.60;;
74543;SDS011;63016;55.030;38.710;2023-10-09T17:11:53;1.20;;;0.80;;
74543;SDS011;63016;55.030;38.710;2023-10-09T17:16:51;1.55;;;0.70;;
74543;SDS011;63016;55.030;38.710;2023-10-09T17:19:19;1.48;;;0.80;;
74543;SDS011;63016;55.030;38.710;2023-10-09T17:21:49;1.15;;;0.60;;
74543;SDS011;63016;55.030;38.710;2023-10-09T17:24:18;3.45;;;0.80;;
74543;SDS011;63016;55.030;38.710;2023-10-09T17:26:47;0.80;;;0.60;;
74543;SDS011;63016;55.030;38.710;2023-10-09T17:29:18;1.00;;;0.70;;
74543;SDS011;63016;55.030;38.710;2023-10-09T17:31:44;0.73;;;0.70;;
74543;SDS011;63016;55.030;38.710;2023-10-09T17:34:10;1.80;;;0.70;;
74543;SDS011;63016;55.030;38.710;2023-10-09T17:36:36;1.35;;;0.90;;
74543;SDS011;63016;55.030;38.710;2023-10-09T17:39:02;1.60;;;0.90;;
74543;SDS011;63016;55.030;38.710;2023-10-09T17:41:40;2.33;;;0.90;;
74543;SDS011;63016;55.030;38.710;2023-10-09T17:44:09;1.02;;;0.60;;
74543;SDS011;63016;55.030;38.710;2023-10-09T17:46:35;0.95;;;0.55;;
74543;SDS011;63016;55.030;38.710;2023-10-09T17:49:02;1.10;;;0.68;;
74543;SDS011;63016;55.030;38.710;2023-10-09T17:51:31;0.90;;;0.70;;
74543;SDS011;63016;55.030;38.710;2023-10-09T17:54:01;1.23;;;0.80;;
74543;SDS011;63016;55.030;38.710;2023-10-09T17:56:27;1.33;;;0.70;;
74543;SDS011;63016;55.030;38.710;2023-10-09T17:58:55;1.08;;;0.70;;
74543;SDS011;63016;55.030;38.710;2023-10-09T18:01:26;1.05;;;0.77;;
74543;SDS011;63016;55.030;38.710;2023-10-09T18:03:58;2.42;;;1.10;;